Time;durP1;ratioP1;P1;durP2;ratioP2;P2;SDS_P1;SDS_P2;PMS_P1;PMS_P2;Temp;Humidity;BMP_temperature;BMP_pressure;BME280_temperature;BME280_humidity;BME280_pressure;Samples;Min_cycle;Max_cycle;Signal;HPM_P1;HPM_P2
2022/01/08 00:02:20;;;;;;;23.40;7.70;;;;;;;0.34;100.00;100774.38;4925568;28;20031;-73
2022/01/08 00:04:45;;;;;;;20.08;6.53;;;;;;;0.30;100.00;100775.66;4918851;28;20490;-74
2022/01/08 00:07:11;;;;;;;18.08;6.63;;;;;;;0.37;100.00;100776.72;4916535;28;20082;-74
2022/01/08 00:09:36;;;;;;;13.85;6.32;;;;;;;0.37;100.00;100772.25;4926382;28;20030;-74
2022/01/08 00:12:02;;;;;;;18.83;5.97;;;;;;;0.47;100.00;100778.34;4907750;28;20451;-73
2022/01/08 00:14:28;;;;;;;16.63;5.82;;;;;;;0.57;100.00;100778.28;4926570;28;20031;-74
2022/01/08 00:16:54;;;;;;;16.60;4.95;;;;;;;0.63;100.00;100787.44;4916549;28;20031;-73
2022/01/08 00:19:19;;;;;;;20.23;5.25;;;;;;;0.63;100.00;100772.38;4916596;28;20050;-73
2022/01/08 00:21:45;;;;;;;14.07;4.53;;;;;;;0.65;100.00;100769.56;4925783;28;20121;-73
2022/01/08 00:24:11;;;;;;;12.15;4.40;;;;;;;0.56;100.00;100776.63;4893792;28;20070;-74
2022/01/08 00:26:36;;;;;;;16.52;4.63;;;;;;;0.51;100.00;100781.53;4925600;28;20046;-73
2022/01/08 00:29:02;;;;;;;12.43;4.32;;;;;;;0.44;100.00;100777.78;4920687;28;20043;-73
2022/01/08 00:31:27;;;;;;;10.32;4.03;;;;;;;0.42;100.00;100767.34;4916381;28;20060;-73
2022/01/08 00:33:53;;;;;;;13.57;4.43;;;;;;;0.43;100.00;100776.97;4922230;28;20177;-73
2022/01/08 00:36:19;;;;;;;12.65;4.63;;;;;;;0.41;100.00;100759.53;4906378;28;20058;-73
2022/01/08 00:38:44;;;;;;;9.18;4.45;;;;;;;0.50;100.00;100766.59;4924778;28;20035;-73
2022/01/08 00:41:10;;;;;;;16.48;5.22;;;;;;;0.46;100.00;100759.94;4919338;28;20031;-73
2022/01/08 00:43:36;;;;;;;15.68;6.00;;;;;;;0.50;100.00;100757.81;4916069;28;20085;-73
2022/01/08 00:46:02;;;;;;;12.00;5.50;;;;;;;0.50;100.00;100756.00;4924466;28;20069;-73
2022/01/08 00:48:27;;;;;;;14.25;6.18;;;;;;;0.45;100.00;100750.31;4925343;28;20133;-73
2022/01/08 00:50:53;;;;;;;17.08;5.95;;;;;;;0.40;100.00;100755.22;4909127;28;20039;-73
2022/01/08 00:53:19;;;;;;;17.08;7.43;;;;;;;0.38;100.00;100760.66;4924578;28;20027;-73
2022/01/08 00:55:45;;;;;;;19.45;7.10;;;;;;;0.36;100.00;100764.47;4921546;28;20050;-73
2022/01/08 00:58:10;;;;;;;15.60;6.53;;;;;;;0.40;100.00;100763.19;4931200;28;23617;-73
2022/01/08 01:00:36;;;;;;;16.83;6.38;;;;;;;0.39;100.00;100757.06;4916163;28;20117;-73
2022/01/08 01:03:01;;;;;;;14.15;6.57;;;;;;;0.42;100.00;100753.25;4913767;28;20053;-73
2022/01/08 01:05:27;;;;;;;16.90;6.68;;;;;;;0.41;100.00;100762.19;4923069;28;20050;-73
2022/01/08 01:07:54;;;;;;;18.88;6.07;;;;;;;0.40;100.00;100760.53;4921565;28;20184;-73
2022/01/08 01:10:19;;;;;;;20.45;7.00;;;;;;;0.42;100.00;100763.84;4932350;28;20159;-73
2022/01/08 01:12:45;;;;;;;18.75;6.70;;;;;;;0.42;100.00;100769.16;4930338;28;20059;-73
2022/01/08 01:15:13;;;;;;;12.25;6.07;;;;;;;0.46;100.00;100759.94;4929577;28;20065;-73
2022/01/08 01:17:39;;;;;;;20.73;7.43;;;;;;;0.43;100.00;100760.25;4926118;28;20046;-73
2022/01/08 01:20:06;;;;;;;15.82;6.32;;;;;;;0.37;100.00;100768.78;4921869;28;20108;-73
2022/01/08 01:22:42;;;;;;;20.85;6.32;;;;;;;0.31;100.00;100778.13;4932214;28;20703;-72
2022/01/08 01:25:11;;;;;;;14.38;6.47;;;;;;;0.26;100.00;100779.56;4916286;28;20061;-72
2022/01/08 01:30:13;;;;;;;20.60;6.97;;;;;;;0.38;100.00;100779.22;4916742;28;20054;-72
2022/01/08 01:49:05;;;;;;;14.70;6.75;;;;;;;0.63;100.00;100767.09;4912595;28;20055;-73
2022/01/08 01:51:31;;;;;;;14.18;6.78;;;;;;;0.62;100.00;100775.16;4931137;28;20046;-73
2022/01/08 01:53:56;;;;;;;16.75;6.72;;;;;;;0.69;100.00;100776.25;4915638;28;20077;-74
2022/01/08 01:56:22;;;;;;;23.00;7.82;;;;;;;0.81;100.00;100784.78;4913221;28;20680;-75
2022/01/08 01:58:48;;;;;;;20.70;7.50;;;;;;;0.92;100.00;100787.25;4927764;28;20031;-75
2022/01/08 02:01:14;;;;;;;18.17;7.70;;;;;;;0.98;100.00;100770.69;4915823;28;20061;-75
2022/01/08 02:03:40;;;;;;;25.85;8.35;;;;;;;0.93;100.00;100765.88;4927362;28;20023;-75
2022/01/08 02:06:06;;;;;;;25.23;8.98;;;;;;;0.88;100.00;100783.22;4908296;28;20727;-75
2022/01/08 02:08:33;;;;;;;14.20;8.57;;;;;;;0.84;100.00;100779.19;4924752;28;20069;-74
2022/01/08 02:10:58;;;;;;;24.13;9.10;;;;;;;0.84;100.00;100779.19;4926361;28;20506;-74
2022/01/08 02:13:28;;;;;;;20.08;9.07;;;;;;;0.78;100.00;100785.94;4909367;28;20082;-74
2022/01/08 02:15:55;;;;;;;18.13;8.77;;;;;;;0.69;100.00;100777.06;4927625;28;20039;-74
2022/01/08 02:18:25;;;;;;;19.25;9.05;;;;;;;0.70;100.00;100783.19;4911868;28;20181;-74
2022/01/08 02:20:52;;;;;;;21.38;8.95;;;;;;;0.70;100.00;100778.75;4926976;28;20041;-74
2022/01/08 02:23:18;;;;;;;18.77;9.20;;;;;;;0.69;100.00;100770.94;4923228;28;20034;-74
2022/01/08 02:25:44;;;;;;;22.13;9.95;;;;;;;0.65;100.00;100769.56;4916349;28;20133;-74
2022/01/08 02:28:09;;;;;;;23.05;10.07;;;;;;;0.59;100.00;100771.00;4927137;28;20081;-74
2022/01/08 02:30:35;;;;;;;17.75;9.60;;;;;;;0.48;100.00;100771.22;4912954;28;20162;-74
2022/01/08 02:33:00;;;;;;;28.35;11.95;;;;;;;0.50;100.00;100766.59;4926298;28;20035;-72
2022/01/08 02:35:26;;;;;;;22.70;11.20;;;;;;;0.40;100.00;100765.84;4939647;28;20047;-73
2022/01/08 02:37:53;;;;;;;19.65;10.98;;;;;;;0.33;100.00;100770.06;4885779;28;20082;-73
2022/01/08 02:40:19;;;;;;;22.77;11.70;;;;;;;0.31;100.00;100764.06;4928191;28;20130;-72
2022/01/08 02:42:59;;;;;;;22.77;12.07;;;;;;;0.29;100.00;100753.63;4911608;28;20091;-73
2022/01/08 02:45:24;;;;;;;25.60;12.77;;;;;;;0.35;100.00;100753.03;4925308;28;20046;-72
2022/01/08 02:47:50;;;;;;;32.42;13.05;;;;;;;0.32;100.00;100748.03;4919047;28;20057;-74
2022/01/08 02:50:15;;;;;;;22.30;13.20;;;;;;;0.31;100.00;100761.41;4916635;28;20051;-74
2022/01/08 02:52:43;;;;;;;27.40;13.10;;;;;;;0.23;100.00;100760.34;4926373;28;20062;-74
2022/01/08 02:55:09;;;;;;;32.63;13.25;;;;;;;0.19;100.00;100756.31;4910957;28;20077;-71
2022/01/08 02:57:34;;;;;;;30.13;14.23;;;;;;;0.12;100.00;100752.59;4892699;28;20027;-72
2022/01/08 03:00:00;;;;;;;35.17;14.07;;;;;;;0.09;100.00;100752.88;4921512;28;20055;-72
2022/01/08 03:02:25;;;;;;;29.73;13.55;;;;;;;-0.02;100.00;100748.63;4918475;28;20091;-74
2022/01/08 03:04:52;;;;;;;32.30;12.80;;;;;;;0.04;100.00;100747.22;4941108;28;20049;-71
2022/01/08 03:07:18;;;;;;;28.02;13.57;;;;;;;0.02;100.00;100756.28;4911792;28;20137;-72
2022/01/08 03:09:45;;;;;;;30.52;13.82;;;;;;;0.04;100.00;100744.56;4926349;28;20278;-72
2022/01/08 03:12:11;;;;;;;29.58;13.95;;;;;;;0.01;100.00;100739.56;4917507;28;20054;-72
2022/01/08 03:14:36;;;;;;;29.30;12.88;;;;;;;0.03;100.00;100734.09;4916782;28;20098;-72
2022/01/08 03:17:02;;;;;;;28.05;13.18;;;;;;;-0.04;100.00;100736.50;4926204;28;20041;-73
2022/01/08 03:19:27;;;;;;;28.95;12.52;;;;;;;-0.02;100.00;100739.84;4912086;28;20054;-73
2022/01/08 03:21:54;;;;;;;28.30;12.30;;;;;;;-0.01;100.00;100738.84;4926572;28;20041;-73
2022/01/08 03:24:28;;;;;;;30.25;12.52;;;;;;;-0.10;100.00;100742.41;4920020;28;20850;-73
2022/01/08 03:26:54;;;;;;;28.35;11.98;;;;;;;-0.15;100.00;100745.47;4909700;28;20046;-73
2022/01/08 03:29:20;;;;;;;25.70;12.27;;;;;;;-0.18;100.00;100736.97;4908789;28;20161;-73
2022/01/08 03:31:45;;;;;;;26.10;12.95;;;;;;;-0.14;100.00;100735.69;4910769;28;20146;-72
2022/01/08 03:34:10;;;;;;;26.60;12.50;;;;;;;-0.10;100.00;100731.81;4926003;28;20747;-73
2022/01/08 03:36:36;;;;;;;29.92;13.60;;;;;;;-0.09;100.00;100733.47;4910402;28;20057;-74
2022/01/08 03:39:02;;;;;;;28.50;12.65;;;;;;;-0.08;100.00;100735.94;4925265;28;20053;-73
2022/01/08 03:41:28;;;;;;;31.17;13.38;;;;;;;-0.16;100.00;100732.38;4925097;28;20129;-73
2022/01/08 03:43:53;;;;;;;23.05;13.20;;;;;;;-0.14;100.00;100735.69;4911636;28;20051;-72
2022/01/08 03:46:20;;;;;;;28.75;11.57;;;;;;;-0.16;100.00;100727.09;4924913;28;20034;-73
2022/01/08 03:48:57;;;;;;;32.50;12.73;;;;;;;-0.15;100.00;100728.75;4910853;28;20051;-74
2022/01/08 03:51:23;;;;;;;27.40;11.88;;;;;;;-0.21;100.00;100718.72;4925467;28;20033;-73
2022/01/08 03:53:48;;;;;;;26.98;10.45;;;;;;;-0.26;100.00;100727.94;4922149;28;20043;-73
2022/01/08 03:56:14;;;;;;;25.98;11.52;;;;;;;-0.29;100.00;100741.47;4910647;28;20055;-73
2022/01/08 03:58:39;;;;;;;24.13;11.68;;;;;;;-0.29;100.00;100741.47;4925457;28;20065;-73
2022/01/08 04:01:05;;;;;;;22.20;10.00;;;;;;;-0.24;100.00;100741.06;4912727;28;20109;-73
2022/01/08 04:03:30;;;;;;;26.08;11.13;;;;;;;-0.16;100.00;100738.50;4926671;28;20090;-73
2022/01/08 04:05:55;;;;;;;29.63;10.68;;;;;;;-0.15;100.00;100740.16;4921524;28;20081;-73
2022/01/08 04:08:21;;;;;;;21.65;10.23;;;;;;;-0.11;100.00;100751.28;4912920;28;20058;-73
2022/01/08 04:10:46;;;;;;;22.27;9.48;;;;;;;-0.05;100.00;100753.38;4926562;28;20042;-73
2022/01/08 04:13:15;;;;;;;23.50;10.38;;;;;;;-0.02;100.00;100755.72;4912157;28;20051;-73
2022/01/08 04:15:44;;;;;;;22.98;10.25;;;;;;;0.02;100.00;100757.09;4891373;28;20035;-73
2022/01/08 04:18:10;;;;;;;23.42;10.73;;;;;;;0.07;100.00;100754.00;4917997;28;20054;-73
2022/01/08 04:20:48;;;;;;;24.40;9.70;;;;;;;0.08;100.00;100761.00;4881367;28;20707;-72
2022/01/08 04:23:15;;;;;;;21.55;8.07;;;;;;;0.09;100.00;100746.75;4924424;28;20755;-73
2022/01/08 04:25:40;;;;;;;26.65;8.98;;;;;;;0.12;100.00;100749.94;4903660;28;20050;-73
2022/01/08 04:28:06;;;;;;;17.60;8.10;;;;;;;0.13;100.00;100759.56;4923106;28;20038;-73
2022/01/08 04:30:31;;;;;;;15.18;7.07;;;;;;;0.13;100.00;100758.72;4917566;28;20047;-73
2022/01/08 04:32:57;;;;;;;17.25;7.80;;;;;;;0.10;100.00;100759.84;4914633;28;20053;-74
2022/01/08 04:35:23;;;;;;;17.40;7.30;;;;;;;0.17;100.00;100771.50;4922959;28;20058;-73
2022/01/08 04:37:48;;;;;;;23.52;8.35;;;;;;;0.22;100.00;100779.88;4908956;28;20054;-73
2022/01/08 04:40:14;;;;;;;16.98;6.13;;;;;;;0.30;100.00;100788.91;4922732;28;23865;-73
2022/01/08 04:42:39;;;;;;;12.60;6.65;;;;;;;0.30;100.00;100794.19;4900085;28;22401;-73
2022/01/08 04:45:05;;;;;;;19.70;6.93;;;;;;;0.33;100.00;100786.78;4914734;28;20062;-73
2022/01/08 04:47:30;;;;;;;19.80;6.40;;;;;;;0.32;100.00;100786.94;4924354;28;20039;-74
2022/01/08 04:49:56;;;;;;;14.93;5.32;;;;;;;0.36;100.00;100791.78;4911244;28;20057;-73
2022/01/08 04:52:21;;;;;;;15.75;5.60;;;;;;;0.38;100.00;100789.81;4925484;28;20039;-73
2022/01/08 04:54:47;;;;;;;15.23;5.88;;;;;;;0.37;100.00;100793.44;4918878;28;20051;-73
2022/01/08 04:57:12;;;;;;;11.73;5.43;;;;;;;0.33;100.00;100797.38;4916218;28;22852;-73
2022/01/08 04:59:37;;;;;;;12.52;5.18;;;;;;;0.40;100.00;100792.34;4925211;28;20097;-74
2022/01/08 05:02:03;;;;;;;13.00;5.00;;;;;;;0.40;100.00;100792.34;4908689;28;20046;-74
2022/01/08 05:04:28;;;;;;;12.23;6.00;;;;;;;0.36;100.00;100788.31;4923385;28;20081;-74
2022/01/08 05:06:54;;;;;;;13.35;5.28;;;;;;;0.28;100.00;100788.19;4922316;28;20401;-74
2022/01/08 05:09:19;;;;;;;23.35;5.13;;;;;;;0.28;100.00;100799.66;4920885;28;20127;-74
2022/01/08 05:11:46;;;;;;;15.88;5.05;;;;;;;0.35;100.00;100778.69;4925257;28;20042;-74
2022/01/08 05:14:12;;;;;;;15.68;5.68;;;;;;;0.38;100.00;100788.97;4882761;28;20062;-74
2022/01/08 05:16:39;;;;;;;19.70;5.82;;;;;;;0.39;100.00;100794.16;4924366;28;20049;-74
2022/01/08 05:19:04;;;;;;;20.15;5.82;;;;;;;0.44;100.00;100793.69;4907198;28;20046;-74
2022/01/08 05:21:32;;;;;;;15.40;6.53;;;;;;;0.38;100.00;100784.50;4923272;28;23936;-74
2022/01/08 05:23:58;;;;;;;18.98;5.68;;;;;;;0.35;100.00;100786.63;4924394;28;20041;-72
2022/01/08 05:26:25;;;;;;;13.70;5.50;;;;;;;0.34;100.00;100791.09;4909822;28;20050;-72
2022/01/08 05:28:52;;;;;;;17.25;5.53;;;;;;;0.39;100.00;100785.38;4926113;28;20026;-73
2022/01/08 05:31:22;;;;;;;19.23;5.15;;;;;;;0.39;100.00;100785.38;4907601;28;20062;-72
2022/01/08 05:33:48;;;;;;;13.88;5.32;;;;;;;0.36;100.00;100789.13;4907367;28;20419;-72
2022/01/08 05:36:14;;;;;;;15.35;6.05;;;;;;;0.40;100.00;100785.22;4925986;28;20042;-72
2022/01/08 05:38:40;;;;;;;12.52;5.35;;;;;;;0.46;100.00;100784.63;4908574;28;20078;-72
2022/01/08 05:41:05;;;;;;;12.32;5.78;;;;;;;0.39;100.00;100777.41;4926679;28;20035;-72
2022/01/08 05:43:31;;;;;;;12.77;5.13;;;;;;;0.43;100.00;100792.03;4913342;28;22686;-72
2022/01/08 05:45:56;;;;;;;15.80;5.55;;;;;;;0.35;100.00;100794.56;4927494;28;20050;-72
2022/01/08 05:48:23;;;;;;;22.85;6.40;;;;;;;0.26;100.00;100790.19;4928980;28;20043;-72
2022/01/08 05:50:49;;;;;;;9.52;5.07;;;;;;;0.22;100.00;100789.63;4910333;28;20451;-72
2022/01/08 05:53:16;;;;;;;10.77;5.22;;;;;;;0.27;100.00;100799.78;4926853;28;20039;-72
2022/01/08 05:55:42;;;;;;;17.40;6.18;;;;;;;0.21;100.00;100804.69;4910371;28;20105;-72
2022/01/08 05:58:07;;;;;;;18.88;6.70;;;;;;;0.10;100.00;100810.16;4925586;28;20120;-72
2022/01/08 06:00:32;;;;;;;16.55;6.07;;;;;;;0.01;100.00;100803.09;4926380;28;20108;-72
2022/01/08 06:02:58;;;;;;;16.73;6.50;;;;;;;0.06;100.00;100803.50;4913485;28;20054;-73
2022/01/08 06:05:25;;;;;;;24.33;7.32;;;;;;;0.06;100.00;100811.44;4927691;28;20047;-72
2022/01/08 06:07:50;;;;;;;15.00;6.82;;;;;;;-0.03;100.00;100820.28;4915356;28;20090;-74
2022/01/08 06:10:16;;;;;;;25.20;8.32;;;;;;;0.00;100.00;100817.34;4927752;28;20031;-73
2022/01/08 06:12:41;;;;;;;20.15;9.27;;;;;;;-0.02;100.00;100817.47;4927880;28;20078;-73
2022/01/08 06:15:07;;;;;;;25.83;10.52;;;;;;;-0.08;100.00;100810.09;4894742;28;20055;-74
2022/01/08 06:17:32;;;;;;;32.53;12.07;;;;;;;0.02;100.00;100825.97;4928843;28;20035;-73
2022/01/08 06:19:58;;;;;;;35.97;13.35;;;;;;;0.00;100.00;100833.22;4913094;28;20053;-73
2022/01/08 06:22:23;;;;;;;31.48;13.38;;;;;;;-0.02;100.00;100837.81;4928661;28;20450;-73
2022/01/08 06:24:49;;;;;;;36.28;14.82;;;;;;;-0.15;100.00;100832.00;4925629;28;20038;-73
2022/01/08 06:27:14;;;;;;;34.30;14.57;;;;;;;-0.14;100.00;100833.66;4911302;28;20047;-73
2022/01/08 06:29:40;;;;;;;36.25;14.05;;;;;;;-0.14;100.00;100826.59;4927897;28;20483;-73
2022/01/08 06:32:06;;;;;;;37.38;15.95;;;;;;;-0.15;100.00;100824.06;4912871;28;20056;-73
2022/01/08 06:34:31;;;;;;;35.58;14.73;;;;;;;-0.12;100.00;100840.50;4928027;28;20043;-73
2022/01/08 06:36:56;;;;;;;30.63;14.73;;;;;;;-0.12;100.00;100844.97;4925719;28;20043;-73
2022/01/08 06:39:22;;;;;;;26.50;12.90;;;;;;;-0.08;100.00;100844.53;4914930;28;20086;-73
2022/01/08 06:41:47;;;;;;;33.60;15.18;;;;;;;-0.11;100.00;100841.31;4926338;28;20065;-73
2022/01/08 06:44:14;;;;;;;33.78;14.82;;;;;;;-0.09;100.00;100844.69;4911101;28;20229;-73
2022/01/08 06:46:40;;;;;;;35.92;16.23;;;;;;;-0.02;100.00;100845.78;4923459;28;20039;-73
2022/01/08 06:49:07;;;;;;;32.80;13.82;;;;;;;0.07;100.00;100834.31;4922647;28;20046;-73
2022/01/08 06:51:32;;;;;;;34.53;14.85;;;;;;;0.04;100.00;100839.06;4913952;28;20185;-73
2022/01/08 06:53:57;;;;;;;28.17;14.30;;;;;;;0.04;100.00;100834.59;4924665;28;20039;-73
2022/01/08 06:56:23;;;;;;;30.48;15.60;;;;;;;0.03;100.00;100835.56;4910230;28;20051;-73
2022/01/08 06:58:48;;;;;;;38.35;15.32;;;;;;;0.06;100.00;100831.81;4925861;28;20145;-73
2022/01/08 07:01:14;;;;;;;31.05;13.90;;;;;;;0.03;100.00;100826.78;4917690;28;20039;-73
2022/01/08 07:03:39;;;;;;;37.38;13.77;;;;;;;0.03;100.00;100826.78;4915519;28;20142;-73
2022/01/08 07:06:05;;;;;;;34.05;14.30;;;;;;;0.01;100.00;100829.59;4927402;28;20406;-73
2022/01/08 07:08:30;;;;;;;33.72;14.18;;;;;;;-0.10;100.00;100837.72;4895569;28;20054;-73
2022/01/08 07:10:56;;;;;;;35.80;12.98;;;;;;;-0.13;100.00;100835.34;4925771;28;20058;-73
2022/01/08 07:13:22;;;;;;;36.67;13.43;;;;;;;-0.26;100.00;100827.72;4920744;28;20723;-73
2022/01/08 07:15:47;;;;;;;30.70;14.00;;;;;;;-0.26;100.00;100839.13;4918557;28;20070;-73
2022/01/08 07:18:13;;;;;;;35.58;14.20;;;;;;;-0.21;100.00;100835.22;4927273;28;20042;-73
2022/01/08 07:20:38;;;;;;;32.28;13.98;;;;;;;-0.25;100.00;100839.97;4911218;28;22746;-73
2022/01/08 07:23:04;;;;;;;42.80;14.48;;;;;;;-0.27;100.00;100844.56;4925606;28;22421;-73
2022/01/08 07:25:29;;;;;;;37.30;14.90;;;;;;;-0.25;100.00;100839.97;4920788;28;22833;-71
2022/01/08 07:27:55;;;;;;;34.85;13.82;;;;;;;-0.23;100.00;100842.47;4916888;28;20054;-73
2022/01/08 07:30:20;;;;;;;34.28;13.77;;;;;;;-0.28;100.00;100841.09;4924562;28;20049;-73
2022/01/08 07:32:48;;;;;;;36.00;13.50;;;;;;;-0.17;100.00;100836.63;4909306;28;20116;-73
2022/01/08 07:35:15;;;;;;;38.50;14.65;;;;;;;-0.21;100.00;100841.38;4925515;28;20042;-73
2022/01/08 07:37:41;;;;;;;43.75;13.93;;;;;;;-0.20;100.00;100843.03;4920708;28;20049;-73
2022/01/08 07:40:07;;;;;;;42.55;14.38;;;;;;;-0.23;100.00;100843.31;4915231;28;20062;-71
2022/01/08 07:42:33;;;;;;;36.63;14.73;;;;;;;-0.27;100.00;100856.00;4926020;28;20026;-71
2022/01/08 07:44:59;;;;;;;35.03;13.75;;;;;;;-0.21;100.00;100853.75;4909577;28;20074;-72
2022/01/08 07:47:25;;;;;;;37.10;14.00;;;;;;;-0.18;100.00;100849.00;4923808;28;20046;-72
2022/01/08 07:49:50;;;;;;;33.45;14.30;;;;;;;-0.08;100.00;100851.63;4919264;28;20553;-72
2022/01/08 07:52:16;;;;;;;32.47;15.20;;;;;;;-0.06;100.00;100845.22;4916792;28;20055;-72
2022/01/08 07:54:42;;;;;;;31.70;13.40;;;;;;;0.01;100.00;100850.78;4925589;28;20073;-72
2022/01/08 07:57:07;;;;;;;34.25;13.10;;;;;;;-0.01;100.00;100844.78;4909058;28;20142;-72
2022/01/08 07:59:33;;;;;;;28.65;12.90;;;;;;;0.04;100.00;100839.06;4924078;28;20049;-72
2022/01/08 08:01:58;;;;;;;39.70;13.45;;;;;;;-0.04;100.00;100842.41;4918777;28;20138;-72
2022/01/08 08:04:23;;;;;;;34.20;12.25;;;;;;;-0.11;100.00;100841.31;4914625;28;20065;-72
2022/01/08 08:06:49;;;;;;;38.42;12.70;;;;;;;-0.09;100.00;100845.50;4924369;28;20038;-72
2022/01/08 08:09:14;;;;;;;28.05;12.20;;;;;;;-0.11;100.00;100830.72;4912113;28;20308;-72
2022/01/08 08:11:41;;;;;;;21.20;11.75;;;;;;;-0.10;100.00;100824.47;4925987;28;20050;-73
2022/01/08 08:14:06;;;;;;;26.85;11.55;;;;;;;-0.08;100.00;100833.91;4904460;28;21146;-72
2022/01/08 08:16:32;;;;;;;28.42;11.35;;;;;;;-0.01;100.00;100815.66;4916180;28;20047;-73
2022/01/08 08:18:57;;;;;;;36.55;12.32;;;;;;;0.05;100.00;100820.38;4924552;28;20496;-72
2022/01/08 08:21:23;;;;;;;23.33;11.88;;;;;;;0.02;100.00;100819.81;4907220;28;20101;-73
2022/01/08 08:23:48;;;;;;;28.85;11.98;;;;;;;0.01;100.00;100811.06;4923637;28;20387;-73
2022/01/08 08:26:14;;;;;;;19.90;11.05;;;;;;;0.08;100.00;100808.66;4918539;28;20047;-73
2022/01/08 08:28:39;;;;;;;25.75;11.43;;;;;;;0.11;100.00;100795.13;4914785;28;20047;-73
2022/01/08 08:31:05;;;;;;;37.67;11.77;;;;;;;0.22;100.00;100793.13;4924549;28;21566;-73
2022/01/08 08:33:30;;;;;;;24.77;11.88;;;;;;;0.33;100.00;100796.56;4909277;28;20125;-73
2022/01/08 08:35:56;;;;;;;27.08;10.77;;;;;;;0.42;100.00;100785.06;4918752;28;20039;-73
2022/01/08 08:38:21;;;;;;;27.63;11.40;;;;;;;0.70;100.00;100788.50;4932053;28;20057;-73
2022/01/08 08:40:47;;;;;;;42.47;12.68;;;;;;;1.16;100.00;100782.16;4914115;28;20059;-73
2022/01/08 08:43:12;;;;;;;27.48;11.35;;;;;;;1.50;100.00;100780.56;4922638;28;20129;-73
2022/01/08 08:45:41;;;;;;;31.15;11.18;;;;;;;1.75;100.00;100786.88;4907210;28;20146;-73
2022/01/08 08:48:06;;;;;;;28.02;11.02;;;;;;;1.94;100.00;100789.31;4921707;28;20623;-74
2022/01/08 08:50:32;;;;;;;21.02;9.15;;;;;;;2.07;100.00;100779.09;4914315;28;20047;-74
2022/01/08 08:52:57;;;;;;;28.05;9.13;;;;;;;2.13;100.00;100783.75;4914229;28;22485;-73
2022/01/08 08:55:23;;;;;;;21.77;8.75;;;;;;;2.06;100.00;100787.22;4906385;28;20662;-74
2022/01/08 08:57:48;;;;;;;16.67;7.20;;;;;;;2.11;100.00;100784.94;4909081;28;20058;-74
2022/01/08 09:00:14;;;;;;;18.85;7.22;;;;;;;2.04;100.00;100784.72;4921845;28;21175;-74
2022/01/08 09:02:40;;;;;;;15.27;7.20;;;;;;;2.10;100.00;100786.72;4917251;28;20051;-75
2022/01/08 09:05:06;;;;;;;11.40;6.10;;;;;;;2.13;100.00;100783.75;4911983;28;20059;-75
2022/01/08 09:07:33;;;;;;;13.93;6.45;;;;;;;2.09;100.00;100786.91;4906023;28;20038;-74
2022/01/08 09:09:59;;;;;;;22.38;7.00;;;;;;;1.89;100.00;100791.59;4920144;28;20055;-74
2022/01/08 09:12:24;;;;;;;19.10;6.93;;;;;;;1.73;100.00;100796.84;4904075;28;20043;-74
2022/01/08 09:14:50;;;;;;;18.08;7.15;;;;;;;1.71;100.00;100794.31;4908515;28;20047;-73
2022/01/08 09:17:16;;;;;;;17.55;6.55;;;;;;;1.77;100.00;100792.88;4926892;28;20070;-74
2022/01/08 09:19:43;;;;;;;19.90;6.65;;;;;;;1.87;100.00;100780.31;4925993;28;20034;-73
2022/01/08 09:22:09;;;;;;;23.13;6.07;;;;;;;2.08;100.00;100787.91;4907487;28;20047;-74
2022/01/08 09:24:36;;;;;;;20.23;6.57;;;;;;;2.27;100.00;100779.66;4926918;28;20223;-74
2022/01/08 09:27:03;;;;;;;20.65;6.68;;;;;;;2.36;100.00;100772.56;4908725;28;20155;-75
2022/01/08 09:29:28;;;;;;;11.85;6.03;;;;;;;2.65;100.00;100776.63;4924674;28;20482;-74
2022/01/08 09:31:54;;;;;;;11.93;5.55;;;;;;;2.74;100.00;100765.84;4925590;28;20077;-75
2022/01/08 09:34:19;;;;;;;14.88;6.13;;;;;;;2.90;100.00;100762.38;4908448;28;20101;-75
2022/01/08 09:36:45;;;;;;;18.63;5.72;;;;;;;3.25;100.00;100760.38;4926320;28;20043;-74
2022/01/08 09:39:11;;;;;;;19.58;5.18;;;;;;;3.39;100.00;100769.53;4909786;28;22838;-75
2022/01/08 09:41:36;;;;;;;19.95;5.45;;;;;;;3.40;100.00;100755.22;4923221;28;20046;-74
2022/01/08 09:44:02;;;;;;;18.67;5.15;;;;;;;3.52;100.00;100760.03;4925814;28;20600;-74
2022/01/08 09:46:27;;;;;;;12.02;4.72;;;;;;;3.48;100.00;100749.88;4912070;28;20058;-74
2022/01/08 09:48:53;;;;;;;18.05;4.45;;;;;;;3.23;100.00;100741.94;4943002;28;20034;-75
2022/01/08 09:51:19;;;;;;;14.52;4.25;;;;;;;2.97;100.00;100731.44;4880928;28;20065;-74
2022/01/08 09:53:45;;;;;;;17.77;4.90;;;;;;;2.70;100.00;100715.78;4928445;28;20548;-75
2022/01/08 09:56:13;;;;;;;13.77;4.38;;;;;;;2.50;100.00;100710.78;4941826;28;21214;-74
2022/01/08 09:58:39;;;;;;;24.85;5.68;;;;;;;2.40;100.00;100704.78;4918432;28;20064;-74
2022/01/08 10:01:24;;;;;;;12.23;5.72;;;;;;;2.49;100.00;100701.16;4910344;28;20026;-74
2022/01/08 10:03:49;;;;;;;16.65;5.03;;;;;;;2.48;100.00;100695.97;4912250;28;20050;-75
2022/01/08 10:06:21;;;;;;;17.38;5.07;;;;;;;2.43;100.00;100693.81;4907661;28;25177;-74
2022/01/08 10:08:47;;;;;;;21.90;4.75;;;;;;;2.43;100.00;100693.81;4921714;28;20042;-74
2022/01/08 10:11:13;;;;;;;12.75;4.80;;;;;;;2.58;100.00;100692.19;4916002;28;20051;-74
2022/01/08 10:13:41;;;;;;;12.80;4.28;;;;;;;2.72;100.00;100681.88;4925090;28;20086;-75
2022/01/08 10:18:55;;;;;;;11.77;4.55;;;;;;;3.14;100.00;100665.72;4911343;28;20041;-75
2022/01/08 10:21:29;;;;;;;17.70;4.82;;;;;;;2.92;100.00;100672.59;4911489;28;20058;-75
2022/01/08 10:23:58;;;;;;;18.30;5.30;;;;;;;2.88;100.00;100679.25;4926755;28;20031;-75
2022/01/08 10:26:31;;;;;;;21.10;5.05;;;;;;;2.87;100.00;100665.06;4923192;28;20035;-75
2022/01/08 10:28:59;;;;;;;12.35;4.57;;;;;;;2.83;100.00;100673.56;4918157;28;20077;-75
2022/01/08 10:31:28;;;;;;;22.30;5.35;;;;;;;2.82;100.00;100671.91;4927304;28;20038;-74
2022/01/08 10:34:00;;;;;;;15.93;5.30;;;;;;;2.82;100.00;100666.59;4911382;28;20063;-74
2022/01/08 10:36:30;;;;;;;15.18;5.43;;;;;;;2.81;100.00;100651.63;4941766;28;20039;-74
2022/01/08 10:38:57;;;;;;;18.02;5.32;;;;;;;2.79;100.00;100653.63;4918376;28;20070;-74
2022/01/08 10:41:25;;;;;;;21.23;5.97;;;;;;;2.81;100.00;100655.13;4917297;28;20046;-74
2022/01/08 10:44:12;;;;;;;15.07;5.40;;;;;;;2.80;100.00;100647.28;4924891;28;20066;-75
2022/01/08 10:46:43;;;;;;;19.13;5.93;;;;;;;2.87;100.00;100637.66;4910483;28;20100;-75
2022/01/08 10:49:08;;;;;;;46.80;14.15;;;;;;;2.94;100.00;100645.78;4925540;28;20038;-74
2022/01/08 10:51:39;;;;;;;20.13;7.32;;;;;;;2.93;100.00;100636.16;4910530;28;20070;-74
2022/01/08 10:54:10;;;;;;;19.17;6.10;;;;;;;2.92;100.00;100630.00;4927558;28;20121;-75
2022/01/08 10:56:37;;;;;;;19.80;6.13;;;;;;;2.83;100.00;100625.69;4922994;28;20031;-75
2022/01/08 10:59:23;;;;;;;14.82;5.93;;;;;;;2.79;100.00;100627.03;4916361;28;20406;-74
2022/01/08 11:01:50;;;;;;;15.70;6.18;;;;;;;2.72;100.00;100623.38;4924721;28;20109;-74
2022/01/08 11:04:36;;;;;;;21.35;6.65;;;;;;;2.82;100.00;100613.38;4912201;28;20057;-74
2022/01/08 11:07:04;;;;;;;47.35;24.83;;;;;;;2.66;100.00;100613.38;4927488;28;20074;-73
2022/01/08 11:09:30;;;;;;;20.55;7.85;;;;;;;2.78;100.00;100596.13;4926457;28;20051;-74
2022/01/08 11:11:58;;;;;;;18.73;8.43;;;;;;;2.77;100.00;100594.44;4909917;28;20214;-74
2022/01/08 11:17:12;;;;;;;20.42;6.53;;;;;;;2.73;100.00;100582.47;4899883;28;20054;-75
2022/01/08 11:19:39;;;;;;;14.80;6.55;;;;;;;2.84;100.00;100575.00;4928393;28;24430;-74
2022/01/08 11:22:09;;;;;;;16.75;7.88;;;;;;;3.08;100.00;100566.09;4910029;28;20059;-74
2022/01/08 11:24:35;;;;;;;15.25;7.35;;;;;;;3.21;100.00;100564.75;4952551;28;20038;-75
2022/01/08 11:27:00;;;;;;;18.00;7.90;;;;;;;3.37;100.00;100563.84;4930736;28;20038;-75
2022/01/08 11:29:28;;;;;;;22.13;10.20;;;;;;;3.45;100.00;100553.16;4932397;28;20065;-75
2022/01/08 11:31:55;;;;;;;19.42;9.48;;;;;;;3.48;100.00;100545.66;4935228;28;20027;-75
2022/01/08 11:34:24;;;;;;;24.15;8.70;;;;;;;3.43;100.00;100542.66;4907851;28;20057;-75